createdAt,value
2023-04-30T00:01:45.118Z,99.90
2023-04-30T00:04:13.515Z,99.90
2023-04-30T00:06:42.498Z,99.90
2023-04-30T00:09:10.663Z,99.90
2023-04-30T00:11:38.823Z,99.90
2023-04-30T00:14:07.016Z,99.90
2023-04-30T00:16:36.395Z,99.90
2023-04-30T00:19:06.095Z,99.90
2023-04-30T00:21:34.789Z,99.90
2023-04-30T00:24:02.905Z,99.90
2023-04-30T00:26:30.893Z,99.90
2023-04-30T00:28:58.810Z,99.90
2023-04-30T00:31:27.139Z,99.90
2023-04-30T00:33:58.400Z,99.90
2023-04-30T00:36:51.324Z,99.90
2023-04-30T00:39:29.092Z,99.90
2023-04-30T00:41:56.967Z,99.90
2023-04-30T00:44:24.960Z,99.90
2023-04-30T00:46:53.489Z,99.90
2023-04-30T00:49:23.681Z,99.90
2023-04-30T00:51:59.393Z,99.90
2023-04-30T00:54:27.692Z,99.90
2023-04-30T00:56:57.513Z,99.90
2023-04-30T00:59:26.072Z,99.90
2023-04-30T01:01:54.907Z,99.90
2023-04-30T01:04:24.408Z,99.90
2023-04-30T01:06:53.133Z,99.90
2023-04-30T01:09:21.371Z,99.90
2023-04-30T01:11:58.075Z,99.90
2023-04-30T01:14:31.139Z,99.90
2023-04-30T01:17:06.793Z,99.90
2023-04-30T01:19:43.943Z,99.90
2023-04-30T01:22:23.955Z,99.90
2023-04-30T01:25:16.567Z,99.90
2023-04-30T01:28:04.518Z,99.90
2023-04-30T01:30:33.394Z,99.90
2023-04-30T01:33:01.545Z,99.90
2023-04-30T01:35:59.704Z,99.90
2023-04-30T01:38:42.373Z,99.90
2023-04-30T01:41:22.576Z,99.90
2023-04-30T01:44:05.433Z,99.90
2023-04-30T01:46:36.126Z,99.90
2023-04-30T01:49:13.126Z,99.90
2023-04-30T01:51:43.389Z,99.90
2023-04-30T01:54:19.118Z,99.90
2023-04-30T01:56:55.624Z,99.90
2023-04-30T01:59:27.474Z,99.90
2023-04-30T02:01:57.439Z,99.90
2023-04-30T02:04:28.235Z,99.90
2023-04-30T02:07:08.779Z,99.90
2023-04-30T02:09:36.877Z,99.90
2023-04-30T02:12:16.288Z,99.90
2023-04-30T02:17:45.153Z,99.90
2023-04-30T02:20:13.781Z,99.90
2023-04-30T02:22:42.025Z,99.90
2023-04-30T02:25:12.665Z,99.90
2023-04-30T02:27:44.774Z,99.90
2023-04-30T02:30:12.928Z,99.90
2023-04-30T02:32:41.054Z,99.90
2023-04-30T02:35:10.793Z,99.90
2023-04-30T02:37:38.711Z,99.90
2023-04-30T02:40:08.214Z,99.90
2023-04-30T02:42:36.087Z,99.90
2023-04-30T02:45:05.111Z,99.90
2023-04-30T02:47:33.104Z,99.90
2023-04-30T02:50:01.216Z,99.90
2023-04-30T02:52:33.445Z,99.90
2023-04-30T02:55:01.868Z,99.90
2023-04-30T02:57:29.775Z,99.90
2023-04-30T02:59:57.772Z,99.90
2023-04-30T03:02:26.418Z,99.90
2023-04-30T03:04:54.352Z,99.90
2023-04-30T03:07:22.682Z,99.90
2023-04-30T03:09:52.982Z,99.90
2023-04-30T03:12:21.743Z,99.90
2023-04-30T03:14:49.765Z,99.90
2023-04-30T03:17:17.741Z,99.90
2023-04-30T03:19:45.738Z,99.90
2023-04-30T03:22:13.708Z,99.90
2023-04-30T03:24:41.844Z,99.90
2023-04-30T03:27:11.408Z,99.90
2023-04-30T03:29:39.502Z,99.90
2023-04-30T03:32:10.822Z,99.90
2023-04-30T03:34:39.907Z,99.90
2023-04-30T03:37:07.790Z,99.90
2023-04-30T03:39:35.663Z,99.90
2023-04-30T03:42:03.811Z,99.90
2023-04-30T03:44:33.230Z,99.90
2023-04-30T03:47:01.227Z,99.90
2023-04-30T03:49:29.102Z,99.90
2023-04-30T03:51:57.041Z,99.90
2023-04-30T03:54:24.950Z,99.90
2023-04-30T03:56:52.955Z,99.90
2023-04-30T03:59:20.896Z,99.90
2023-04-30T04:01:50.440Z,99.90
2023-04-30T04:04:18.506Z,99.90
2023-04-30T04:06:46.677Z,99.90
2023-04-30T04:09:14.652Z,99.90
2023-04-30T04:11:43.948Z,99.90
2023-04-30T04:14:11.956Z,99.90
2023-04-30T04:16:40.041Z,99.90
2023-04-30T04:19:10.128Z,99.90
2023-04-30T04:21:38.286Z,99.90
2023-04-30T04:24:10.058Z,99.90
2023-04-30T04:26:38.565Z,99.90
2023-04-30T04:29:08.757Z,99.90
2023-04-30T04:31:36.936Z,99.90
2023-04-30T04:34:06.097Z,99.90
2023-04-30T04:36:36.432Z,99.90
2023-04-30T04:39:04.524Z,99.90
2023-04-30T04:41:33.804Z,99.90
2023-04-30T04:44:03.300Z,99.90
2023-04-30T04:46:32.211Z,99.90
2023-04-30T04:49:00.724Z,99.90
2023-04-30T04:51:28.599Z,99.90
2023-04-30T04:53:57.954Z,99.90
2023-04-30T04:56:26.472Z,99.90
2023-04-30T04:58:54.505Z,99.90
2023-04-30T05:01:22.475Z,99.90
2023-04-30T05:03:53.968Z,99.90
2023-04-30T05:06:22.172Z,99.90
2023-04-30T05:08:50.182Z,99.90
2023-04-30T05:11:22.163Z,99.90
2023-04-30T05:13:50.277Z,99.90
2023-04-30T05:16:18.713Z,99.90
2023-04-30T05:18:47.212Z,99.90
2023-04-30T05:21:15.435Z,99.90
2023-04-30T05:23:46.466Z,99.90
2023-04-30T05:26:14.502Z,99.90
2023-04-30T05:28:44.042Z,99.90
2023-04-30T05:31:12.524Z,99.90
2023-04-30T05:33:43.141Z,99.90
2023-04-30T05:36:12.083Z,99.90
2023-04-30T05:38:40.361Z,99.90
2023-04-30T05:41:16.901Z,99.90
2023-04-30T05:43:49.027Z,99.90
2023-04-30T05:46:17.018Z,99.90
2023-04-30T05:48:45.014Z,99.90
2023-04-30T05:51:12.979Z,99.90
2023-04-30T05:53:41.434Z,99.90
2023-04-30T05:56:09.846Z,99.90
2023-04-30T05:58:38.298Z,99.90
2023-04-30T06:01:11.019Z,99.90
2023-04-30T06:03:38.945Z,99.90
2023-04-30T06:06:10.402Z,99.90
2023-04-30T06:08:38.494Z,99.90
2023-04-30T06:11:07.512Z,99.90
2023-04-30T06:13:35.669Z,99.90
2023-04-30T06:16:03.950Z,99.90
2023-04-30T06:18:33.301Z,99.90
2023-04-30T06:21:01.229Z,99.90
2023-04-30T06:23:29.175Z,99.90
2023-04-30T06:25:57.538Z,99.90
2023-04-30T06:28:25.562Z,99.90
2023-04-30T06:30:54.427Z,99.90
2023-04-30T06:33:24.441Z,99.90
2023-04-30T06:35:55.480Z,99.90
2023-04-30T06:38:23.947Z,99.90
2023-04-30T06:40:53.351Z,99.90
2023-04-30T06:43:21.397Z,99.90
2023-04-30T06:45:49.481Z,99.90
2023-04-30T06:48:17.559Z,99.90
2023-04-30T06:50:46.769Z,99.90
2023-04-30T06:53:16.485Z,99.90
2023-04-30T06:55:45.989Z,99.90
2023-04-30T06:58:13.899Z,99.90
2023-04-30T07:00:42.323Z,99.90
2023-04-30T07:03:10.384Z,99.90
2023-04-30T07:05:38.893Z,99.90
2023-04-30T07:08:07.700Z,99.90
2023-04-30T07:10:40.455Z,99.90
2023-04-30T07:13:08.530Z,99.90
2023-04-30T07:15:37.391Z,99.90
2023-04-30T07:18:05.738Z,99.90
2023-04-30T07:20:33.837Z,99.90
2023-04-30T07:23:02.325Z,99.90
2023-04-30T07:25:30.322Z,99.90
2023-04-30T07:27:59.598Z,99.90
2023-04-30T07:30:27.859Z,99.90
2023-04-30T07:32:56.927Z,99.90
2023-04-30T07:35:25.892Z,99.90
2023-04-30T07:37:53.901Z,99.90
2023-04-30T07:40:34.789Z,99.90
2023-04-30T07:43:06.805Z,99.90
2023-04-30T07:45:38.513Z,99.60
2023-04-30T07:48:07.164Z,99.90
2023-04-30T07:50:41.206Z,97.60
2023-04-30T07:53:09.911Z,97.40
2023-04-30T07:55:38.767Z,94.50
2023-04-30T07:58:12.809Z,94.30
2023-04-30T08:00:41.246Z,94.80
2023-04-30T08:03:09.478Z,96.20
2023-04-30T08:05:38.063Z,94.50
2023-04-30T08:08:13.305Z,96.30
2023-04-30T08:11:26.835Z,97.10
2023-04-30T08:14:18.288Z,95.30
2023-04-30T08:16:47.022Z,94.70
2023-04-30T08:19:15.186Z,94.10
2023-04-30T08:21:46.565Z,95.20
2023-04-30T08:24:14.735Z,91.50
2023-04-30T08:26:43.707Z,93.90
2023-04-30T08:29:13.752Z,92.00
2023-04-30T08:31:41.874Z,90.00
2023-04-30T08:34:11.323Z,87.40
2023-04-30T08:36:39.411Z,91.10
2023-04-30T08:39:07.572Z,89.20
2023-04-30T08:41:40.706Z,87.60
2023-04-30T08:44:12.369Z,90.40
2023-04-30T08:46:46.700Z,91.50
2023-04-30T08:49:17.211Z,90.90
2023-04-30T08:51:45.706Z,90.80
2023-04-30T08:54:18.132Z,87.80
2023-04-30T08:56:50.548Z,86.10
2023-04-30T08:59:22.645Z,89.90
2023-04-30T09:01:53.853Z,89.60
2023-04-30T09:04:22.308Z,91.30
2023-04-30T09:06:54.608Z,86.50
2023-04-30T09:09:38.973Z,90.60
2023-04-30T09:12:18.625Z,91.30
2023-04-30T09:15:01.581Z,91.20
2023-04-30T09:17:31.710Z,92.80
2023-04-30T09:20:09.340Z,88.60
2023-04-30T09:22:42.704Z,90.90
2023-04-30T09:25:45.996Z,90.40
2023-04-30T09:28:15.206Z,85.60
2023-04-30T09:30:44.186Z,81.60
2023-04-30T09:33:13.648Z,86.40
2023-04-30T09:35:42.873Z,82.60
2023-04-30T09:38:27.393Z,80.00
2023-04-30T09:40:55.882Z,79.00
2023-04-30T09:43:26.263Z,77.90
2023-04-30T09:45:54.335Z,71.20
2023-04-30T09:48:38.070Z,76.20
2023-04-30T09:51:09.753Z,82.00
2023-04-30T09:53:39.734Z,76.70
2023-04-30T09:56:12.722Z,72.70
2023-04-30T09:58:45.452Z,70.70
2023-04-30T10:01:13.966Z,73.00
2023-04-30T10:03:44.749Z,69.10
2023-04-30T10:06:15.644Z,68.70
2023-04-30T10:08:45.488Z,68.30
2023-04-30T10:11:18.741Z,70.70
2023-04-30T10:13:55.353Z,61.90
2023-04-30T10:16:37.995Z,67.90
2023-04-30T10:19:10.386Z,62.60
2023-04-30T10:21:43.364Z,57.70
2023-04-30T10:24:14.869Z,60.10
2023-04-30T10:26:43.687Z,64.10
2023-04-30T10:29:15.575Z,59.30
2023-04-30T10:31:48.976Z,59.60
2023-04-30T10:34:27.142Z,58.30
2023-04-30T10:37:00.157Z,55.50
2023-04-30T10:39:29.493Z,56.50
2023-04-30T10:42:04.760Z,54.00
2023-04-30T10:44:35.305Z,55.80
2023-04-30T10:47:04.823Z,55.80
2023-04-30T10:49:35.019Z,56.20
2023-04-30T10:52:08.321Z,54.60
2023-04-30T10:54:38.842Z,54.30
2023-04-30T10:57:14.478Z,53.50
2023-04-30T10:59:52.676Z,54.50
2023-04-30T11:02:23.963Z,56.50
2023-04-30T11:05:17.602Z,56.60
2023-04-30T11:07:50.543Z,54.80
2023-04-30T11:10:22.107Z,55.70
2023-04-30T11:12:51.092Z,57.50
2023-04-30T11:15:22.124Z,56.80
2023-04-30T11:17:52.741Z,58.60
2023-04-30T11:20:25.541Z,58.70
2023-04-30T11:23:21.838Z,58.30
2023-04-30T11:25:58.173Z,58.10
2023-04-30T11:28:29.314Z,59.30
2023-04-30T11:30:59.187Z,59.70
2023-04-30T11:33:28.604Z,58.60
2023-04-30T11:35:59.753Z,58.80
2023-04-30T11:38:29.318Z,60.60
2023-04-30T11:40:58.376Z,60.30
2023-04-30T11:43:28.217Z,61.00
2023-04-30T11:46:12.041Z,59.50
2023-04-30T11:48:42.317Z,59.00
2023-04-30T11:51:19.477Z,58.60
2023-04-30T11:53:49.595Z,58.60
2023-04-30T11:56:21.942Z,58.40
2023-04-30T11:58:51.084Z,55.90
2023-04-30T12:01:20.224Z,55.60
2023-04-30T12:03:53.580Z,57.90
2023-04-30T12:06:27.628Z,56.70
2023-04-30T12:08:57.614Z,55.60
2023-04-30T12:11:28.900Z,57.10
2023-04-30T12:13:59.081Z,55.60
2023-04-30T12:16:29.689Z,57.60
2023-04-30T12:18:57.700Z,57.00
2023-04-30T12:21:29.177Z,55.80
2023-04-30T12:23:57.208Z,55.00
2023-04-30T12:26:25.214Z,54.40
2023-04-30T12:28:56.594Z,54.00
2023-04-30T12:31:28.340Z,52.10
2023-04-30T12:33:57.060Z,53.60
2023-04-30T12:36:33.700Z,53.40
2023-04-30T12:39:11.517Z,53.30
2023-04-30T12:41:42.857Z,50.90
2023-04-30T12:44:21.381Z,52.40
2023-04-30T12:46:56.606Z,54.30
2023-04-30T12:49:26.391Z,52.60
2023-04-30T12:52:00.363Z,53.90
2023-04-30T12:54:30.766Z,51.60
2023-04-30T12:57:03.966Z,51.40
2023-04-30T12:59:33.189Z,50.50
2023-04-30T13:02:17.349Z,51.10
2023-04-30T13:04:45.887Z,50.30
2023-04-30T13:07:15.155Z,49.60
2023-04-30T13:09:46.080Z,49.70
2023-04-30T13:12:14.330Z,49.50
2023-04-30T13:14:42.358Z,49.10
2023-04-30T13:17:12.627Z,49.70
2023-04-30T13:19:42.335Z,49.10
2023-04-30T13:22:10.381Z,49.10
2023-04-30T13:24:39.733Z,48.80
2023-04-30T13:27:07.682Z,51.30
2023-04-30T13:29:35.546Z,50.90
2023-04-30T13:32:04.226Z,50.60
2023-04-30T13:34:32.907Z,49.30
2023-04-30T13:37:00.845Z,48.80
2023-04-30T13:39:29.310Z,49.10
2023-04-30T13:41:58.570Z,48.90
2023-04-30T13:44:26.768Z,50.10
2023-04-30T13:46:58.094Z,51.40
2023-04-30T13:49:26.353Z,48.90
2023-04-30T13:51:57.520Z,47.50
2023-04-30T13:54:25.824Z,47.60
2023-04-30T13:56:54.006Z,48.00
2023-04-30T13:59:25.898Z,50.30
2023-04-30T14:01:54.984Z,48.20
2023-04-30T14:04:23.727Z,49.80
2023-04-30T14:06:56.439Z,48.60
2023-04-30T14:09:24.557Z,49.80
2023-04-30T14:11:52.600Z,51.50
2023-04-30T14:14:21.144Z,47.40
2023-04-30T14:16:51.625Z,46.90
2023-04-30T14:19:20.483Z,47.90
2023-04-30T14:21:48.508Z,47.70
2023-04-30T14:24:16.812Z,48.10
2023-04-30T14:26:45.672Z,47.30
2023-04-30T14:29:15.220Z,48.80
2023-04-30T14:31:43.282Z,50.80
2023-04-30T14:34:13.124Z,49.40
2023-04-30T14:36:42.098Z,50.00
2023-04-30T14:39:10.223Z,52.10
2023-04-30T14:41:38.844Z,51.80
2023-04-30T14:44:06.963Z,50.10
2023-04-30T14:46:35.464Z,50.60
2023-04-30T14:49:04.299Z,49.00
2023-04-30T14:51:36.047Z,46.70
2023-04-30T14:54:04.029Z,46.80
2023-04-30T14:56:32.046Z,48.90
2023-04-30T14:59:00.020Z,48.30
2023-04-30T15:01:30.684Z,46.70
2023-04-30T15:03:58.893Z,47.40
2023-04-30T15:06:27.468Z,49.50
2023-04-30T15:08:57.030Z,48.00
2023-04-30T15:11:25.209Z,48.70
2023-04-30T15:13:56.182Z,47.30
2023-04-30T15:16:24.395Z,48.50
2023-04-30T15:18:52.652Z,47.30
2023-04-30T15:21:29.800Z,47.40
2023-04-30T15:23:59.498Z,47.30
2023-04-30T15:26:29.321Z,49.80
2023-04-30T15:28:57.431Z,48.70
2023-04-30T15:31:25.526Z,47.70
2023-04-30T15:34:03.475Z,47.90
2023-04-30T15:36:31.902Z,49.10
2023-04-30T15:39:04.251Z,48.20
2023-04-30T15:41:32.203Z,48.00
2023-04-30T15:44:00.905Z,48.70
2023-04-30T15:46:28.879Z,50.80
2023-04-30T15:48:57.110Z,50.50
2023-04-30T15:51:25.105Z,51.00
2023-04-30T15:53:54.779Z,49.30
2023-04-30T15:56:25.811Z,51.20
2023-04-30T15:58:56.187Z,50.40
2023-04-30T16:01:27.385Z,50.00
2023-04-30T16:03:56.449Z,50.30
2023-04-30T16:06:24.900Z,50.10
2023-04-30T16:08:56.277Z,51.30
2023-04-30T16:11:25.678Z,49.80
2023-04-30T16:13:54.814Z,48.90
2023-04-30T16:16:23.123Z,48.00
2023-04-30T16:18:55.286Z,48.00
2023-04-30T16:21:24.612Z,48.80
2023-04-30T16:23:55.314Z,49.10
2023-04-30T16:26:23.482Z,50.60
2023-04-30T16:28:57.955Z,51.00
2023-04-30T16:31:38.739Z,50.70
2023-04-30T16:34:11.221Z,50.00
2023-04-30T16:36:40.380Z,51.50
2023-04-30T16:39:08.327Z,51.30
2023-04-30T16:41:36.697Z,50.80
2023-04-30T16:44:06.255Z,52.50
2023-04-30T16:46:38.528Z,51.50
2023-04-30T16:49:17.528Z,51.60
2023-04-30T16:51:46.496Z,51.30
2023-04-30T16:54:17.757Z,52.40
2023-04-30T16:56:45.970Z,51.70
2023-04-30T16:59:15.376Z,51.80
2023-04-30T17:01:46.973Z,52.80
2023-04-30T17:04:15.611Z,51.50
2023-04-30T17:06:43.872Z,52.20
2023-04-30T17:09:16.442Z,53.10
2023-04-30T17:11:48.326Z,51.00
2023-04-30T17:14:20.980Z,52.60
2023-04-30T17:16:59.386Z,53.10
2023-04-30T17:19:34.235Z,55.90
2023-04-30T17:22:05.222Z,54.70
2023-04-30T17:24:33.406Z,55.10
2023-04-30T17:27:01.873Z,54.90
2023-04-30T17:29:32.458Z,54.50
2023-04-30T17:32:02.822Z,53.90
2023-04-30T17:34:34.174Z,53.00
2023-04-30T17:37:03.325Z,52.50
2023-04-30T17:39:37.511Z,53.00
2023-04-30T17:42:05.535Z,54.10
2023-04-30T17:44:34.968Z,53.50
2023-04-30T17:47:05.974Z,53.10
2023-04-30T17:49:34.236Z,55.40
2023-04-30T17:52:02.286Z,55.60
2023-04-30T17:54:30.992Z,56.60
2023-04-30T17:57:00.242Z,57.00
2023-04-30T17:59:31.393Z,59.00
2023-04-30T18:02:05.505Z,58.10
2023-04-30T18:04:34.005Z,59.50
2023-04-30T18:07:02.124Z,59.80
2023-04-30T18:09:36.696Z,61.90
2023-04-30T18:12:05.265Z,62.70
2023-04-30T18:14:34.603Z,62.30
2023-04-30T18:17:04.339Z,63.30
2023-04-30T18:19:32.960Z,65.60
2023-04-30T18:22:10.569Z,65.50
2023-04-30T18:24:38.718Z,66.10
2023-04-30T18:27:07.635Z,72.80
2023-04-30T18:29:36.039Z,71.50
2023-04-30T18:32:05.609Z,72.80
2023-04-30T18:34:33.623Z,74.40
2023-04-30T18:37:03.166Z,75.60
2023-04-30T18:39:31.587Z,79.20
2023-04-30T18:42:12.299Z,83.50
2023-04-30T18:44:42.549Z,86.30
2023-04-30T18:47:12.056Z,88.70
2023-04-30T18:49:40.016Z,91.70
2023-04-30T18:52:08.108Z,92.70
2023-04-30T18:55:16.934Z,92.90
2023-04-30T18:57:50.690Z,95.20
2023-04-30T19:00:19.838Z,93.70
2023-04-30T19:02:49.925Z,95.50
2023-04-30T19:05:23.828Z,95.30
2023-04-30T19:07:51.843Z,97.10
2023-04-30T19:10:19.807Z,95.90
2023-04-30T19:12:52.759Z,96.50
2023-04-30T19:15:20.742Z,97.60
2023-04-30T19:17:50.746Z,98.50
2023-04-30T19:20:19.398Z,98.80
2023-04-30T19:22:49.679Z,99.90
2023-04-30T19:25:18.632Z,99.90
2023-04-30T19:27:47.613Z,99.90
2023-04-30T19:30:18.806Z,99.90
2023-04-30T19:32:49.645Z,99.90
2023-04-30T19:35:20.540Z,99.90
2023-04-30T19:37:51.650Z,99.90
2023-04-30T19:40:23.651Z,99.90
2023-04-30T19:42:54.681Z,99.90
2023-04-30T19:45:33.070Z,99.90
2023-04-30T19:48:00.992Z,99.90
2023-04-30T19:50:31.103Z,99.90
2023-04-30T19:52:59.544Z,99.90
2023-04-30T19:55:31.582Z,99.90
2023-04-30T19:57:59.605Z,99.90
2023-04-30T20:00:29.159Z,99.90
2023-04-30T20:03:03.476Z,99.90
2023-04-30T20:05:34.933Z,99.90
2023-04-30T20:08:04.244Z,99.90
2023-04-30T20:10:35.887Z,99.90
2023-04-30T20:13:06.894Z,99.90
2023-04-30T20:15:35.506Z,99.90
2023-04-30T20:18:04.876Z,99.90
2023-04-30T20:20:36.290Z,99.90
2023-04-30T20:23:16.331Z,99.90
2023-04-30T20:25:45.846Z,99.90
2023-04-30T20:28:16.856Z,99.90
2023-04-30T20:30:48.249Z,99.90
2023-04-30T20:33:16.905Z,99.90
2023-04-30T20:35:47.534Z,99.90
2023-04-30T20:38:20.109Z,99.90
2023-04-30T20:40:48.478Z,99.90
2023-04-30T20:43:17.797Z,99.90
2023-04-30T20:45:46.685Z,99.90
2023-04-30T20:48:21.225Z,99.90
2023-04-30T20:50:55.193Z,99.40
2023-04-30T20:53:24.179Z,99.90
2023-04-30T20:55:52.601Z,99.90
2023-04-30T20:58:20.725Z,99.90
2023-04-30T21:00:52.086Z,99.90
2023-04-30T21:03:23.786Z,99.90
2023-04-30T21:05:54.126Z,99.90
2023-04-30T21:08:23.477Z,99.90
2023-04-30T21:10:52.063Z,99.90
2023-04-30T21:13:20.470Z,99.90
2023-04-30T21:15:48.851Z,99.90
2023-04-30T21:18:17.469Z,99.90
2023-04-30T21:20:45.544Z,99.90
2023-04-30T21:23:14.771Z,99.90
2023-04-30T21:25:43.085Z,99.90
2023-04-30T21:28:10.987Z,99.90
2023-04-30T21:30:50.478Z,99.90
2023-04-30T21:33:18.470Z,99.90
2023-04-30T21:35:49.189Z,99.90
2023-04-30T21:38:19.488Z,99.90
2023-04-30T21:40:47.440Z,99.90
2023-04-30T21:43:18.575Z,99.90
2023-04-30T21:45:46.750Z,99.90
2023-04-30T21:48:14.754Z,99.90
2023-04-30T21:50:43.234Z,99.90
2023-04-30T21:53:12.114Z,99.90
2023-04-30T21:55:42.571Z,99.90
2023-04-30T21:58:10.582Z,99.90
2023-04-30T22:00:39.475Z,99.90
2023-04-30T22:03:10.183Z,99.90
2023-04-30T22:05:39.771Z,99.90
2023-04-30T22:08:07.845Z,99.90
2023-04-30T22:10:36.281Z,99.90
2023-04-30T22:13:05.603Z,99.90
2023-04-30T22:15:47.100Z,99.90
2023-04-30T22:18:16.336Z,99.90
2023-04-30T22:20:45.624Z,99.90
2023-04-30T22:23:13.627Z,99.90
2023-04-30T22:25:41.664Z,99.90
2023-04-30T22:28:14.480Z,99.90
2023-04-30T22:30:42.736Z,99.90
2023-04-30T22:33:12.034Z,99.90
2023-04-30T22:35:40.299Z,99.90
2023-04-30T22:38:09.893Z,99.90
2023-04-30T22:40:40.381Z,99.90
2023-04-30T22:43:12.191Z,99.90
2023-04-30T22:45:41.664Z,99.90
2023-04-30T22:48:11.133Z,99.90
2023-04-30T22:50:42.430Z,99.90
2023-04-30T22:53:10.444Z,99.90
2023-04-30T22:55:38.452Z,99.90
2023-04-30T22:58:06.351Z,99.90
2023-04-30T23:00:34.353Z,99.90
2023-04-30T23:03:03.774Z,99.90
2023-04-30T23:05:33.166Z,99.90
2023-04-30T23:08:01.198Z,99.90
2023-04-30T23:10:29.204Z,99.90
2023-04-30T23:12:58.736Z,99.90
2023-04-30T23:15:27.968Z,99.90
2023-04-30T23:17:58.234Z,99.90
2023-04-30T23:20:28.331Z,99.90
2023-04-30T23:22:56.319Z,99.90
2023-04-30T23:25:24.341Z,99.90
2023-04-30T23:27:54.610Z,99.90
2023-04-30T23:30:23.584Z,99.90
2023-04-30T23:32:51.721Z,99.90
2023-04-30T23:35:19.797Z,99.90
2023-04-30T23:37:54.885Z,99.90
2023-04-30T23:40:22.827Z,99.90
2023-04-30T23:42:52.551Z,99.90
2023-04-30T23:45:23.463Z,99.90
2023-04-30T23:47:55.048Z,99.90
2023-04-30T23:50:24.454Z,99.90
2023-04-30T23:52:54.522Z,99.90
2023-04-30T23:55:22.533Z,99.90
2023-04-30T23:57:50.448Z,99.90
